createdAt,value
2017-05-19T00:00:03.396Z,0
2017-05-19T00:01:25.696Z,0
2017-05-19T00:02:47.532Z,0
2017-05-19T00:04:09.465Z,0
2017-05-19T00:05:32.294Z,0
2017-05-19T00:06:53.811Z,0
2017-05-19T00:08:15.312Z,0
2017-05-19T00:09:36.839Z,0
2017-05-19T00:10:59.001Z,0
2017-05-19T00:12:20.871Z,0
2017-05-19T00:13:42.055Z,0
2017-05-19T00:15:03.586Z,0
2017-05-19T00:16:26.033Z,0
2017-05-19T00:17:47.858Z,0
2017-05-19T00:19:09.385Z,0
2017-05-19T00:20:30.970Z,0
2017-05-19T00:21:53.121Z,0
2017-05-19T00:23:14.661Z,0
2017-05-19T00:24:36.804Z,0
2017-05-19T00:25:58.983Z,0
2017-05-19T00:27:21.551Z,0
2017-05-19T00:28:43.389Z,0
2017-05-19T00:30:05.011Z,0
2017-05-19T00:31:26.564Z,0
2017-05-19T00:32:48.515Z,0
2017-05-19T00:34:10.782Z,0
2017-05-19T00:35:32.931Z,0
2017-05-19T00:36:54.740Z,0
2017-05-19T00:38:16.999Z,0
2017-05-19T00:39:39.153Z,0
2017-05-19T00:41:01.390Z,0
2017-05-19T00:42:22.960Z,0
2017-05-19T00:43:45.741Z,0
2017-05-19T00:45:07.560Z,0
2017-05-19T00:46:29.224Z,0
2017-05-19T00:47:50.771Z,0
2017-05-19T00:49:12.681Z,0
2017-05-19T00:50:34.203Z,0
2017-05-19T00:51:55.711Z,0
2017-05-19T00:53:17.857Z,0
2017-05-19T00:54:39.750Z,0
2017-05-19T00:56:01.260Z,0
2017-05-19T00:57:23.469Z,0
2017-05-19T00:58:46.102Z,0
2017-05-19T01:00:08.657Z,0
2017-05-19T01:01:30.823Z,0
2017-05-19T01:02:52.771Z,0
2017-05-19T01:04:14.670Z,0
2017-05-19T01:05:36.969Z,0
2017-05-19T01:06:58.803Z,0
2017-05-19T01:08:20.641Z,0
2017-05-19T01:09:42.542Z,0
2017-05-19T01:11:05.409Z,0
2017-05-19T01:12:27.627Z,0
2017-05-19T01:13:49.150Z,0
2017-05-19T01:15:11.129Z,0
2017-05-19T01:16:33.609Z,0
2017-05-19T01:17:55.437Z,0
2017-05-19T01:19:16.994Z,0
2017-05-19T01:20:38.213Z,0
2017-05-19T01:22:00.990Z,0
2017-05-19T01:23:22.211Z,0
2017-05-19T01:24:44.381Z,0
2017-05-19T01:26:06.215Z,0
2017-05-19T01:27:28.609Z,0
2017-05-19T01:28:49.821Z,0
2017-05-19T01:30:11.330Z,0
2017-05-19T01:31:33.489Z,0
2017-05-19T01:32:55.301Z,0
2017-05-19T01:34:17.525Z,0
2017-05-19T01:35:39.750Z,0
2017-05-19T01:37:02.310Z,0
2017-05-19T01:38:24.122Z,0
2017-05-19T01:39:46.272Z,0
2017-05-19T01:41:08.091Z,0
2017-05-19T01:42:29.931Z,0
2017-05-19T01:43:52.068Z,0
2017-05-19T01:45:13.882Z,0
2017-05-19T01:46:36.020Z,0
2017-05-19T01:47:58.491Z,0
2017-05-19T01:49:20.349Z,0
2017-05-19T01:50:41.865Z,0
2017-05-19T01:52:02.729Z,0
2017-05-19T01:53:23.930Z,0
2017-05-19T01:54:46.070Z,0
2017-05-19T01:56:07.657Z,0
2017-05-19T01:57:29.493Z,0
2017-05-19T01:58:51.460Z,0
2017-05-19T02:00:13.850Z,0
2017-05-19T02:01:36.040Z,0
2017-05-19T02:02:57.235Z,0
2017-05-19T02:04:19.089Z,0
2017-05-19T02:05:40.901Z,0
2017-05-19T02:07:02.725Z,0
2017-05-19T02:08:24.239Z,0
2017-05-19T02:09:46.703Z,0
2017-05-19T02:11:09.475Z,0
2017-05-19T02:12:30.682Z,0
2017-05-19T02:13:52.525Z,0
2017-05-19T02:15:14.070Z,0
2017-05-19T02:16:35.580Z,0
2017-05-19T02:17:57.729Z,0
2017-05-19T02:19:19.549Z,0
2017-05-19T02:20:42.072Z,0
2017-05-19T02:22:04.510Z,0
2017-05-19T02:23:26.764Z,0
2017-05-19T02:24:48.916Z,0
2017-05-19T02:26:10.728Z,0
2017-05-19T02:27:32.471Z,0
2017-05-19T02:28:54.622Z,0
2017-05-19T02:30:16.753Z,0
2017-05-19T02:31:37.960Z,0
2017-05-19T02:33:00.110Z,0
2017-05-19T02:34:22.269Z,0
2017-05-19T02:35:44.753Z,0
2017-05-19T02:37:06.644Z,0
2017-05-19T02:38:28.729Z,0
2017-05-19T02:39:51.274Z,0
2017-05-19T02:41:13.107Z,0
2017-05-19T02:42:34.670Z,0
2017-05-19T02:43:57.168Z,0
2017-05-19T02:45:19.315Z,0
2017-05-19T02:46:40.510Z,0
2017-05-19T02:48:02.022Z,0
2017-05-19T02:49:24.106Z,0
2017-05-19T02:50:46.009Z,0
2017-05-19T02:52:07.561Z,0
2017-05-19T02:53:29.730Z,0
2017-05-19T02:54:51.911Z,0
2017-05-19T02:56:14.069Z,0
2017-05-19T02:57:36.230Z,0
2017-05-19T02:58:58.489Z,0
2017-05-19T03:00:20.790Z,0
2017-05-19T03:01:42.609Z,0
2017-05-19T03:03:04.143Z,0
2017-05-19T03:04:26.299Z,0
2017-05-19T03:05:48.471Z,0
2017-05-19T03:07:10.640Z,0
2017-05-19T03:08:32.477Z,0
2017-05-19T03:09:53.991Z,0
2017-05-19T03:11:16.009Z,0
2017-05-19T03:12:36.910Z,0
2017-05-19T03:13:57.877Z,0
2017-05-19T03:15:19.398Z,0
2017-05-19T03:16:41.207Z,0
2017-05-19T03:18:02.090Z,0
2017-05-19T03:19:23.948Z,0
2017-05-19T03:20:45.532Z,0
2017-05-19T03:22:07.350Z,0
2017-05-19T03:23:29.292Z,0
2017-05-19T03:24:51.500Z,0
2017-05-19T03:26:13.491Z,5
2017-05-19T03:27:35.961Z,5
2017-05-19T03:28:58.449Z,5
2017-05-19T03:30:19.973Z,5
2017-05-19T03:31:42.140Z,5
2017-05-19T03:33:04.219Z,5
2017-05-19T03:34:25.743Z,5
2017-05-19T03:35:47.390Z,5
2017-05-19T03:37:09.540Z,5
2017-05-19T03:38:31.671Z,5
2017-05-19T03:39:53.920Z,10
2017-05-19T03:41:15.827Z,10
2017-05-19T03:42:37.346Z,10
2017-05-19T03:43:59.480Z,10
2017-05-19T03:45:21.658Z,10
2017-05-19T03:46:43.489Z,10
2017-05-19T03:48:05.111Z,15
2017-05-19T03:49:26.950Z,15
2017-05-19T03:50:48.460Z,15
2017-05-19T03:52:09.659Z,15
2017-05-19T03:53:32.140Z,15
2017-05-19T03:54:54.010Z,15
2017-05-19T03:56:16.461Z,20
2017-05-19T03:57:38.602Z,20
2017-05-19T03:59:00.750Z,20
2017-05-19T04:00:23.707Z,20
2017-05-19T04:01:45.552Z,20
2017-05-19T04:03:06.751Z,20
2017-05-19T04:04:28.934Z,20
2017-05-19T04:05:51.087Z,20
2017-05-19T04:07:12.602Z,20
2017-05-19T04:08:34.739Z,25
2017-05-19T04:09:57.460Z,25
2017-05-19T04:11:19.630Z,25
2017-05-19T04:12:41.502Z,30
2017-05-19T04:14:03.659Z,30
2017-05-19T04:15:26.183Z,35
2017-05-19T04:16:48.973Z,40
2017-05-19T04:18:10.487Z,40
2017-05-19T04:19:32.332Z,40
2017-05-19T04:20:54.812Z,40
2017-05-19T04:22:16.993Z,40
2017-05-19T04:23:38.831Z,40
2017-05-19T04:25:01.069Z,40
2017-05-19T04:26:23.401Z,40
2017-05-19T04:27:45.270Z,45
2017-05-19T04:29:06.801Z,45
2017-05-19T04:30:28.951Z,45
2017-05-19T04:31:50.459Z,40
2017-05-19T04:33:12.684Z,40
2017-05-19T04:34:34.829Z,35
2017-05-19T04:35:56.673Z,30
2017-05-19T04:37:18.200Z,30
2017-05-19T04:38:40.498Z,30
2017-05-19T04:40:02.339Z,30
2017-05-19T04:41:24.193Z,35
2017-05-19T04:42:46.371Z,35
2017-05-19T04:44:08.460Z,40
2017-05-19T04:45:29.362Z,40
2017-05-19T04:46:51.518Z,40
2017-05-19T04:48:14.022Z,40
2017-05-19T04:49:36.477Z,40
2017-05-19T04:50:58.720Z,45
2017-05-19T04:52:20.657Z,40
2017-05-19T04:53:42.490Z,40
2017-05-19T04:55:04.961Z,45
2017-05-19T04:56:27.499Z,45
2017-05-19T04:57:48.711Z,45
2017-05-19T04:59:10.859Z,50
2017-05-19T05:00:33.668Z,55
2017-05-19T05:01:55.830Z,55
2017-05-19T05:03:18.290Z,55
2017-05-19T05:04:40.130Z,55
2017-05-19T05:06:02.719Z,60
2017-05-19T05:07:24.360Z,55
2017-05-19T05:08:45.881Z,55
2017-05-19T05:10:07.732Z,50
2017-05-19T05:11:30.579Z,50
2017-05-19T05:12:51.782Z,55
2017-05-19T05:14:13.994Z,55
2017-05-19T05:15:36.211Z,60
2017-05-19T05:16:58.297Z,60
2017-05-19T05:18:20.455Z,60
2017-05-19T05:19:42.603Z,55
2017-05-19T05:21:04.450Z,50
2017-05-19T05:22:27.262Z,50
2017-05-19T05:23:49.539Z,50
2017-05-19T05:25:12.011Z,55
2017-05-19T05:26:34.180Z,55
2017-05-19T05:27:56.319Z,55
2017-05-19T05:29:18.816Z,55
2017-05-19T05:30:40.121Z,60
2017-05-19T05:32:01.973Z,65
2017-05-19T05:33:24.384Z,75
2017-05-19T05:34:46.219Z,75
2017-05-19T05:36:08.049Z,75
2017-05-19T05:37:29.561Z,75
2017-05-19T05:38:51.758Z,90
2017-05-19T05:40:13.319Z,105
2017-05-19T05:41:35.472Z,115
2017-05-19T05:42:57.314Z,120
2017-05-19T05:44:19.461Z,145
2017-05-19T05:45:41.617Z,155
2017-05-19T05:47:03.459Z,155
2017-05-19T05:48:25.665Z,140
2017-05-19T05:49:48.070Z,155
2017-05-19T05:51:09.596Z,160
2017-05-19T05:52:31.141Z,160
2017-05-19T05:53:53.609Z,155
2017-05-19T05:55:15.479Z,170
2017-05-19T05:56:37.631Z,170
2017-05-19T05:58:00.139Z,185
2017-05-19T05:59:22.689Z,185
2017-05-19T06:00:44.819Z,180
2017-05-19T06:02:06.984Z,180
2017-05-19T06:03:29.439Z,205
2017-05-19T06:04:51.612Z,185
2017-05-19T06:06:13.381Z,220
2017-05-19T06:07:35.592Z,220
2017-05-19T06:08:58.053Z,205
2017-05-19T06:10:19.989Z,205
2017-05-19T06:11:41.494Z,180
2017-05-19T06:13:03.802Z,205
2017-05-19T06:14:25.642Z,200
2017-05-19T06:15:46.890Z,165
2017-05-19T06:17:09.352Z,170
2017-05-19T06:18:31.620Z,165
2017-05-19T06:19:53.829Z,175
2017-05-19T06:21:16.479Z,185
2017-05-19T06:22:38.620Z,195
2017-05-19T06:24:00.240Z,195
2017-05-19T06:25:22.399Z,205
2017-05-19T06:26:44.893Z,235
2017-05-19T06:28:06.721Z,200
2017-05-19T06:29:28.591Z,190
2017-05-19T06:30:50.188Z,180
2017-05-19T06:32:11.831Z,135
2017-05-19T06:33:34.293Z,170
2017-05-19T06:34:55.834Z,185
2017-05-19T06:36:17.669Z,180
2017-05-19T06:37:40.199Z,190
2017-05-19T06:39:02.299Z,195
2017-05-19T06:40:24.140Z,215
2017-05-19T06:41:46.348Z,195
2017-05-19T06:43:08.515Z,195
2017-05-19T06:44:30.610Z,200
2017-05-19T06:45:53.069Z,240
2017-05-19T06:47:14.662Z,255
2017-05-19T06:48:36.191Z,255
2017-05-19T06:49:58.598Z,250
2017-05-19T06:51:19.840Z,280
2017-05-19T06:52:41.691Z,235
2017-05-19T06:54:03.540Z,240
2017-05-19T06:55:25.990Z,215
2017-05-19T06:56:48.148Z,230
2017-05-19T06:58:09.372Z,210
2017-05-19T06:59:31.921Z,220
2017-05-19T07:00:54.390Z,230
2017-05-19T07:02:16.890Z,225
2017-05-19T07:03:39.129Z,315
2017-05-19T07:05:01.311Z,315
2017-05-19T07:06:23.500Z,235
2017-05-19T07:07:45.131Z,335
2017-05-19T07:09:07.686Z,345
2017-05-19T07:10:29.930Z,305
2017-05-19T07:11:52.010Z,275
2017-05-19T07:13:13.921Z,475
2017-05-19T07:14:36.486Z,405
2017-05-19T07:15:58.640Z,370
2017-05-19T07:17:20.853Z,545
2017-05-19T07:18:43.406Z,455
2017-05-19T07:20:05.254Z,350
2017-05-19T07:21:27.436Z,380
2017-05-19T07:22:49.595Z,305
2017-05-19T07:24:11.143Z,430
2017-05-19T07:25:32.668Z,425
2017-05-19T07:26:54.820Z,400
2017-05-19T07:28:17.217Z,350
2017-05-19T07:29:39.691Z,335
2017-05-19T07:31:01.530Z,410
2017-05-19T07:32:24.055Z,475
2017-05-19T07:33:46.623Z,555
2017-05-19T07:35:08.470Z,575
2017-05-19T07:36:30.651Z,700
2017-05-19T07:37:52.831Z,595
2017-05-19T07:39:15.551Z,455
2017-05-19T07:40:37.430Z,545
2017-05-19T07:41:58.974Z,465
2017-05-19T07:43:21.186Z,465
2017-05-19T07:44:43.473Z,705
2017-05-19T07:46:05.012Z,585
2017-05-19T07:47:26.859Z,600
2017-05-19T07:48:48.704Z,565
2017-05-19T07:50:11.719Z,595
2017-05-19T07:51:33.313Z,470
2017-05-19T07:52:55.231Z,600
2017-05-19T07:54:17.401Z,535
2017-05-19T07:55:39.864Z,500
2017-05-19T07:57:01.820Z,360
2017-05-19T07:58:23.970Z,385
2017-05-19T07:59:46.167Z,445
2017-05-19T08:01:08.661Z,490
2017-05-19T08:02:30.511Z,475
2017-05-19T08:03:53.153Z,450
2017-05-19T08:05:15.423Z,465
2017-05-19T08:06:37.740Z,510
2017-05-19T08:08:00.239Z,525
2017-05-19T08:09:22.401Z,485
2017-05-19T08:10:44.409Z,460
2017-05-19T08:12:06.693Z,470
2017-05-19T08:13:29.254Z,500
2017-05-19T08:14:50.482Z,470
2017-05-19T08:16:12.330Z,460
2017-05-19T08:17:34.779Z,450
2017-05-19T08:18:56.722Z,425
2017-05-19T08:20:18.938Z,395
2017-05-19T08:21:40.820Z,380
2017-05-19T08:23:02.769Z,390
2017-05-19T08:24:24.645Z,375
2017-05-19T08:25:46.551Z,375
2017-05-19T08:27:09.207Z,390
2017-05-19T08:28:31.364Z,405
2017-05-19T08:29:53.225Z,405
2017-05-19T08:31:15.060Z,420
2017-05-19T08:32:36.569Z,410
2017-05-19T08:33:58.070Z,400
2017-05-19T08:35:19.729Z,390
2017-05-19T08:36:42.303Z,370
2017-05-19T08:38:03.976Z,385
2017-05-19T08:39:26.733Z,365
2017-05-19T08:40:48.892Z,365
2017-05-19T08:42:11.370Z,370
2017-05-19T08:43:32.959Z,390
2017-05-19T08:44:55.204Z,415
2017-05-19T08:46:17.112Z,415
2017-05-19T08:47:39.381Z,395
2017-05-19T08:49:01.260Z,370
2017-05-19T08:50:23.731Z,330
2017-05-19T08:51:45.593Z,350
2017-05-19T08:53:06.970Z,405
2017-05-19T08:54:28.510Z,385
2017-05-19T08:55:50.459Z,405
2017-05-19T08:57:12.302Z,435
2017-05-19T08:58:33.909Z,450
2017-05-19T08:59:55.835Z,460
2017-05-19T09:01:18.142Z,455
2017-05-19T09:02:40.678Z,455
2017-05-19T09:04:02.889Z,455
2017-05-19T09:05:23.799Z,450
2017-05-19T09:06:46.261Z,460
2017-05-19T09:08:07.801Z,460
2017-05-19T09:09:30.090Z,460
2017-05-19T09:10:52.172Z,460
2017-05-19T09:12:14.322Z,465
2017-05-19T09:13:36.830Z,455
2017-05-19T09:14:58.673Z,455
2017-05-19T09:16:20.538Z,450
2017-05-19T09:17:42.978Z,440
2017-05-19T09:19:05.290Z,440
2017-05-19T09:20:27.475Z,440
2017-05-19T09:21:49.640Z,440
2017-05-19T09:23:11.931Z,445
2017-05-19T09:24:34.598Z,445
2017-05-19T09:25:56.129Z,430
2017-05-19T09:27:18.078Z,415
2017-05-19T09:28:40.010Z,415
2017-05-19T09:30:02.596Z,420
2017-05-19T09:31:24.441Z,415
2017-05-19T09:32:46.332Z,385
2017-05-19T09:34:08.769Z,330
2017-05-19T09:35:30.701Z,300
2017-05-19T09:36:52.920Z,320
2017-05-19T09:38:14.539Z,305
2017-05-19T09:39:37.108Z,265
2017-05-19T09:40:58.323Z,290
2017-05-19T09:42:20.508Z,300
2017-05-19T09:43:42.769Z,310
2017-05-19T09:45:05.333Z,310
2017-05-19T09:46:27.196Z,295
2017-05-19T09:47:49.352Z,270
2017-05-19T09:49:11.579Z,290
2017-05-19T09:50:33.057Z,315
2017-05-19T09:51:55.310Z,340
2017-05-19T09:53:17.237Z,365
2017-05-19T09:54:38.760Z,375
2017-05-19T09:56:01.270Z,345
2017-05-19T09:57:23.170Z,335
2017-05-19T09:58:45.352Z,370
2017-05-19T10:00:07.303Z,385
2017-05-19T10:01:29.451Z,390
2017-05-19T10:02:51.081Z,375
2017-05-19T10:04:12.601Z,370
2017-05-19T10:05:33.822Z,380
2017-05-19T10:06:56.569Z,385
2017-05-19T10:08:18.437Z,380
2017-05-19T10:09:40.290Z,375
2017-05-19T10:11:02.773Z,375
2017-05-19T10:12:25.309Z,380
2017-05-19T10:13:47.823Z,410
2017-05-19T10:15:09.519Z,430
2017-05-19T10:16:31.422Z,475
2017-05-19T10:17:53.979Z,515
2017-05-19T10:19:15.820Z,540
2017-05-19T10:20:38.367Z,555
2017-05-19T10:22:00.219Z,540
2017-05-19T10:23:22.090Z,515
2017-05-19T10:24:44.269Z,500
2017-05-19T10:26:05.807Z,480
2017-05-19T10:27:27.969Z,450
2017-05-19T10:28:50.871Z,485
2017-05-19T10:30:12.723Z,510
2017-05-19T10:31:33.949Z,585
2017-05-19T10:32:55.208Z,580
2017-05-19T10:34:17.458Z,570
2017-05-19T10:35:39.621Z,560
2017-05-19T10:37:01.799Z,560
2017-05-19T10:38:23.975Z,550
2017-05-19T10:39:46.539Z,530
2017-05-19T10:41:08.711Z,510
2017-05-19T10:42:30.908Z,485
2017-05-19T10:43:52.778Z,470
2017-05-19T10:45:14.571Z,450
2017-05-19T10:46:37.049Z,435
2017-05-19T10:47:59.543Z,380
2017-05-19T10:49:21.460Z,335
2017-05-19T10:50:42.604Z,370
2017-05-19T10:52:05.073Z,375
2017-05-19T10:53:26.598Z,395
2017-05-19T10:54:48.503Z,360
2017-05-19T10:56:10.920Z,330
2017-05-19T10:57:33.093Z,305
2017-05-19T10:58:55.277Z,305
2017-05-19T11:00:16.833Z,315
2017-05-19T11:01:39.860Z,320
2017-05-19T11:03:01.712Z,315
2017-05-19T11:04:24.221Z,310
2017-05-19T11:05:45.742Z,305
2017-05-19T11:07:08.520Z,295
2017-05-19T11:08:30.731Z,280
2017-05-19T11:09:52.591Z,270
2017-05-19T11:11:14.580Z,275
2017-05-19T11:12:37.319Z,270
2017-05-19T11:13:59.899Z,280
2017-05-19T11:15:22.084Z,305
2017-05-19T11:16:43.970Z,295
2017-05-19T11:18:05.794Z,285
2017-05-19T11:19:27.748Z,300
2017-05-19T11:20:49.897Z,320
2017-05-19T11:22:11.427Z,350
2017-05-19T11:23:33.969Z,405
2017-05-19T11:24:56.149Z,465
2017-05-19T11:26:18.689Z,500
2017-05-19T11:27:40.547Z,535
2017-05-19T11:29:02.701Z,570
2017-05-19T11:30:25.180Z,595
2017-05-19T11:31:47.697Z,580
2017-05-19T11:33:09.565Z,585
2017-05-19T11:34:32.105Z,590
2017-05-19T11:35:54.702Z,620
2017-05-19T11:37:17.209Z,640
2017-05-19T11:38:39.400Z,675
2017-05-19T11:40:02.133Z,660
2017-05-19T11:41:24.000Z,615
2017-05-19T11:42:45.920Z,560
2017-05-19T11:44:08.120Z,560
2017-05-19T11:45:30.277Z,470
2017-05-19T11:46:52.771Z,320
2017-05-19T11:48:15.256Z,240
2017-05-19T11:49:37.132Z,155
2017-05-19T11:50:59.288Z,130
2017-05-19T11:52:20.872Z,135
2017-05-19T11:53:42.718Z,160
2017-05-19T11:55:04.908Z,190
2017-05-19T11:56:27.528Z,220
2017-05-19T11:57:49.708Z,235
2017-05-19T11:59:12.274Z,225
2017-05-19T12:00:34.916Z,170
2017-05-19T12:01:56.766Z,195
2017-05-19T12:03:18.929Z,220
2017-05-19T12:04:41.118Z,215
2017-05-19T12:06:03.299Z,240
2017-05-19T12:07:25.747Z,295
2017-05-19T12:08:47.920Z,285
2017-05-19T12:10:10.202Z,290
2017-05-19T12:11:32.145Z,350
2017-05-19T12:12:54.561Z,360
2017-05-19T12:14:16.832Z,380
2017-05-19T12:15:38.720Z,425
2017-05-19T12:17:00.990Z,395
2017-05-19T12:18:23.730Z,345
2017-05-19T12:19:45.907Z,310
2017-05-19T12:21:08.068Z,305
2017-05-19T12:22:30.266Z,315
2017-05-19T12:23:53.191Z,305
2017-05-19T12:25:15.488Z,335
2017-05-19T12:26:37.352Z,295
2017-05-19T12:27:59.340Z,275
2017-05-19T12:29:21.759Z,275
2017-05-19T12:30:43.289Z,290
2017-05-19T12:32:05.141Z,280
2017-05-19T12:33:27.330Z,245
2017-05-19T12:34:50.156Z,230
2017-05-19T12:36:12.644Z,250
2017-05-19T12:37:34.822Z,260
2017-05-19T12:38:56.989Z,250
2017-05-19T12:40:19.509Z,225
2017-05-19T12:41:41.720Z,205
2017-05-19T12:43:03.897Z,165
2017-05-19T12:44:25.425Z,140
2017-05-19T12:45:47.827Z,125
2017-05-19T12:47:10.037Z,125
2017-05-19T12:48:31.595Z,130
2017-05-19T12:49:53.519Z,155
2017-05-19T12:51:15.022Z,190
2017-05-19T12:52:36.561Z,225
2017-05-19T12:53:58.451Z,225
2017-05-19T12:55:20.948Z,185
2017-05-19T12:56:42.789Z,160
2017-05-19T12:58:04.668Z,160
2017-05-19T12:59:25.880Z,160
2017-05-19T13:00:48.371Z,150
2017-05-19T13:02:10.577Z,125
2017-05-19T13:03:32.578Z,105
2017-05-19T13:04:54.492Z,105
2017-05-19T13:06:16.712Z,110
2017-05-19T13:07:38.318Z,110
2017-05-19T13:09:00.574Z,100
2017-05-19T13:10:22.809Z,85
2017-05-19T13:11:44.991Z,85
2017-05-19T13:13:07.459Z,85
2017-05-19T13:14:29.332Z,90
2017-05-19T13:15:51.932Z,95
2017-05-19T13:17:14.421Z,95
2017-05-19T13:18:36.958Z,100
2017-05-19T13:19:58.930Z,110
2017-05-19T13:21:21.420Z,130
2017-05-19T13:22:43.583Z,135
2017-05-19T13:24:06.049Z,130
2017-05-19T13:25:27.910Z,130
2017-05-19T13:26:50.616Z,140
2017-05-19T13:28:12.780Z,160
2017-05-19T13:29:35.339Z,170
2017-05-19T13:30:57.861Z,185
2017-05-19T13:32:20.419Z,175
2017-05-19T13:33:41.956Z,160
2017-05-19T13:35:04.420Z,150
2017-05-19T13:36:26.932Z,145
2017-05-19T13:37:49.502Z,145
2017-05-19T13:39:11.994Z,150
2017-05-19T13:40:34.192Z,160
2017-05-19T13:41:56.058Z,160
2017-05-19T13:43:18.243Z,170
2017-05-19T13:44:40.739Z,190
2017-05-19T13:46:02.919Z,195
2017-05-19T13:47:25.411Z,195
2017-05-19T13:48:47.272Z,205
2017-05-19T13:50:09.450Z,220
2017-05-19T13:51:31.890Z,240
2017-05-19T13:52:53.776Z,225
2017-05-19T13:54:15.959Z,185
2017-05-19T13:55:37.830Z,170
2017-05-19T13:57:00.669Z,175
2017-05-19T13:58:23.170Z,175
2017-05-19T13:59:45.355Z,160
2017-05-19T14:01:07.560Z,155
2017-05-19T14:02:30.079Z,155
2017-05-19T14:03:52.037Z,150
2017-05-19T14:05:14.219Z,150
2017-05-19T14:06:36.482Z,150
2017-05-19T14:07:58.746Z,130
2017-05-19T14:09:21.580Z,115
2017-05-19T14:10:45.050Z,110
2017-05-19T14:12:07.221Z,105
2017-05-19T14:13:29.354Z,95
2017-05-19T14:14:51.199Z,90
2017-05-19T14:16:13.052Z,85
2017-05-19T14:17:35.355Z,80
2017-05-19T14:18:57.799Z,80
2017-05-19T14:20:19.660Z,75
2017-05-19T14:21:41.994Z,75
2017-05-19T14:23:04.480Z,75
2017-05-19T14:24:27.023Z,80
2017-05-19T14:25:49.187Z,75
2017-05-19T14:27:11.075Z,75
2017-05-19T14:28:32.601Z,75
2017-05-19T14:29:55.182Z,75
2017-05-19T14:31:17.711Z,70
2017-05-19T14:32:39.580Z,60
2017-05-19T14:34:02.070Z,55
2017-05-19T14:35:23.880Z,55
2017-05-19T14:36:46.377Z,50
2017-05-19T14:38:08.561Z,50
2017-05-19T14:39:30.408Z,45
2017-05-19T14:40:52.026Z,45
2017-05-19T14:42:14.294Z,40
2017-05-19T14:43:36.920Z,40
2017-05-19T14:44:59.113Z,35
2017-05-19T14:46:21.592Z,35
2017-05-19T14:47:43.534Z,35
2017-05-19T14:49:05.377Z,35
2017-05-19T14:50:26.902Z,35
2017-05-19T14:51:49.741Z,35
2017-05-19T14:53:11.978Z,35
2017-05-19T14:54:33.851Z,35
2017-05-19T14:55:55.409Z,40
2017-05-19T14:57:17.822Z,40
2017-05-19T14:58:40.298Z,40
2017-05-19T15:00:02.496Z,35
2017-05-19T15:01:24.340Z,35
2017-05-19T15:02:46.518Z,35
2017-05-19T15:04:08.421Z,35
2017-05-19T15:05:31.097Z,40
2017-05-19T15:06:52.645Z,40
2017-05-19T15:08:15.070Z,40
2017-05-19T15:09:36.985Z,40
2017-05-19T15:10:58.887Z,40
2017-05-19T15:12:21.038Z,50
2017-05-19T15:13:43.529Z,55
2017-05-19T15:15:05.440Z,65
2017-05-19T15:16:27.932Z,70
2017-05-19T15:17:50.114Z,80
2017-05-19T15:19:12.006Z,80
2017-05-19T15:20:33.641Z,75
2017-05-19T15:21:55.999Z,70
2017-05-19T15:23:17.907Z,70
2017-05-19T15:24:40.441Z,65
2017-05-19T15:26:02.361Z,60
2017-05-19T15:27:24.586Z,60
2017-05-19T15:28:46.882Z,60
2017-05-19T15:30:09.809Z,65
2017-05-19T15:31:32.012Z,65
2017-05-19T15:32:54.662Z,55
2017-05-19T15:34:16.829Z,45
2017-05-19T15:35:39.330Z,40
2017-05-19T15:37:01.169Z,45
2017-05-19T15:38:23.028Z,45
2017-05-19T15:39:45.205Z,45
2017-05-19T15:41:07.780Z,45
2017-05-19T15:42:30.028Z,40
2017-05-19T15:43:52.550Z,35
2017-05-19T15:45:14.542Z,30
2017-05-19T15:46:36.700Z,35
2017-05-19T15:47:58.735Z,35
2017-05-19T15:49:21.347Z,35
2017-05-19T15:50:43.853Z,30
2017-05-19T15:52:06.915Z,30
2017-05-19T15:53:29.083Z,25
2017-05-19T15:54:51.277Z,25
2017-05-19T15:56:13.579Z,20
2017-05-19T15:57:35.805Z,25
2017-05-19T15:58:58.331Z,30
2017-05-19T16:00:20.485Z,30
2017-05-19T16:01:42.441Z,30
2017-05-19T16:03:05.110Z,30
2017-05-19T16:04:27.282Z,30
2017-05-19T16:05:49.808Z,30
2017-05-19T16:07:12.423Z,30
2017-05-19T16:08:35.256Z,30
2017-05-19T16:09:57.434Z,25
2017-05-19T16:11:19.617Z,20
2017-05-19T16:12:42.178Z,20
2017-05-19T16:14:04.606Z,20
2017-05-19T16:15:27.091Z,20
2017-05-19T16:16:49.622Z,25
2017-05-19T16:18:12.173Z,25
2017-05-19T16:19:34.730Z,30
2017-05-19T16:20:57.364Z,35
2017-05-19T16:22:19.853Z,35
2017-05-19T16:23:42.112Z,30
2017-05-19T16:25:04.910Z,25
2017-05-19T16:26:27.067Z,20
2017-05-19T16:27:48.938Z,20
2017-05-19T16:29:10.803Z,20
2017-05-19T16:30:33.019Z,20
2017-05-19T16:31:55.435Z,15
2017-05-19T16:33:17.369Z,15
2017-05-19T16:34:39.239Z,15
2017-05-19T16:36:01.668Z,15
2017-05-19T16:37:23.221Z,10
2017-05-19T16:38:45.369Z,10
2017-05-19T16:40:07.019Z,10
2017-05-19T16:41:29.103Z,10
2017-05-19T16:42:51.633Z,10
2017-05-19T16:44:14.268Z,10
2017-05-19T16:45:36.453Z,10
2017-05-19T16:46:58.401Z,10
2017-05-19T16:48:20.957Z,10
2017-05-19T16:49:44.949Z,10
2017-05-19T16:51:08.400Z,15
2017-05-19T16:52:31.229Z,20
2017-05-19T16:53:55.498Z,20
2017-05-19T16:55:18.133Z,20
2017-05-19T16:56:51.811Z,20
2017-05-19T16:58:15.759Z,20
2017-05-19T16:59:44.273Z,15
2017-05-19T17:01:06.580Z,15
2017-05-19T17:02:29.590Z,15
2017-05-19T17:03:52.446Z,15
2017-05-19T17:05:17.734Z,15
2017-05-19T17:06:39.921Z,15
2017-05-19T17:08:02.719Z,15
2017-05-19T17:09:25.242Z,15
2017-05-19T17:10:47.416Z,15
2017-05-19T17:12:08.961Z,15
2017-05-19T17:13:31.138Z,15
2017-05-19T17:14:53.463Z,15
2017-05-19T17:16:15.654Z,15
2017-05-19T17:17:37.842Z,20
2017-05-19T17:19:00.482Z,20
2017-05-19T17:20:22.701Z,20
2017-05-19T17:21:45.189Z,25
2017-05-19T17:23:07.695Z,25
2017-05-19T17:24:30.301Z,25
2017-05-19T17:25:52.468Z,30
2017-05-19T17:27:14.670Z,25
2017-05-19T17:28:36.919Z,25
2017-05-19T17:29:59.850Z,25
2017-05-19T17:31:21.731Z,25
2017-05-19T17:32:43.572Z,25
2017-05-19T17:34:06.074Z,20
2017-05-19T17:35:27.858Z,20
2017-05-19T17:36:49.700Z,15
2017-05-19T17:38:11.709Z,15
2017-05-19T17:39:34.254Z,15
2017-05-19T17:40:57.179Z,20
2017-05-19T17:42:19.765Z,20
2017-05-19T17:43:42.248Z,20
2017-05-19T17:45:04.462Z,20
2017-05-19T17:46:26.351Z,20
2017-05-19T17:47:48.632Z,20
2017-05-19T17:49:10.697Z,20
2017-05-19T17:50:32.661Z,20
2017-05-19T17:51:55.221Z,20
2017-05-19T17:53:17.101Z,20
2017-05-19T17:54:39.341Z,20
2017-05-19T17:56:00.953Z,15
2017-05-19T17:57:23.827Z,15
2017-05-19T17:58:46.082Z,10
2017-05-19T18:00:07.979Z,10
2017-05-19T18:01:30.501Z,10
2017-05-19T18:02:53.442Z,10
2017-05-19T18:04:15.943Z,5
2017-05-19T18:05:37.890Z,5
2017-05-19T18:07:00.466Z,5
2017-05-19T18:08:22.707Z,5
2017-05-19T18:09:44.613Z,5
2017-05-19T18:11:06.325Z,5
2017-05-19T18:12:28.825Z,5
2017-05-19T18:13:51.579Z,5
2017-05-19T18:15:14.135Z,5
2017-05-19T18:16:36.361Z,5
2017-05-19T18:17:58.325Z,5
2017-05-19T18:19:20.498Z,5
2017-05-19T18:20:42.702Z,5
2017-05-19T18:22:04.878Z,5
2017-05-19T18:23:27.059Z,5
2017-05-19T18:24:49.878Z,5
2017-05-19T18:26:12.577Z,5
2017-05-19T18:27:34.843Z,5
2017-05-19T18:28:56.758Z,5
2017-05-19T18:30:19.613Z,5
2017-05-19T18:31:41.481Z,5
2017-05-19T18:33:03.340Z,5
2017-05-19T18:34:25.590Z,5
2017-05-19T18:35:48.131Z,5
2017-05-19T18:37:10.012Z,5
2017-05-19T18:38:31.915Z,5
2017-05-19T18:39:53.161Z,5
2017-05-19T18:41:16.005Z,5
2017-05-19T18:42:38.192Z,5
2017-05-19T18:44:00.091Z,5
2017-05-19T18:45:22.338Z,5
2017-05-19T18:46:44.822Z,0
2017-05-19T18:48:07.014Z,0
2017-05-19T18:49:29.638Z,0
2017-05-19T18:50:50.874Z,0
2017-05-19T18:52:12.990Z,0
2017-05-19T18:53:34.876Z,0
2017-05-19T18:54:56.750Z,0
2017-05-19T18:56:19.218Z,0
2017-05-19T18:57:42.168Z,0
2017-05-19T18:59:04.449Z,0
2017-05-19T19:00:26.727Z,0
2017-05-19T19:01:49.263Z,0
2017-05-19T19:03:12.060Z,0
2017-05-19T19:04:33.921Z,0
2017-05-19T19:05:56.109Z,0
2017-05-19T19:07:18.122Z,0
2017-05-19T19:08:40.950Z,0
2017-05-19T19:10:03.451Z,0
2017-05-19T19:11:25.648Z,0
2017-05-19T19:12:47.511Z,0
2017-05-19T19:14:10.345Z,0
2017-05-19T19:15:32.890Z,0
2017-05-19T19:16:55.412Z,0
2017-05-19T19:18:17.591Z,0
2017-05-19T19:19:40.146Z,0
2017-05-19T19:21:02.364Z,0
2017-05-19T19:22:23.891Z,0
2017-05-19T19:23:46.411Z,0